sensor_id;sensor_type;location;lat;lon;timestamp;temperature;humidity
15615;DHT22;7907;51.368;6.730;2023-03-02T00:00:09;3.50;90.90
15615;DHT22;7907;51.368;6.730;2023-03-02T00:02:41;3.50;90.90
15615;DHT22;7907;51.368;6.730;2023-03-02T00:05:10;3.50;90.90
15615;DHT22;7907;51.368;6.730;2023-03-02T00:07:39;3.50;90.80
15615;DHT22;7907;51.368;6.730;2023-03-02T00:10:07;3.50;90.80
15615;DHT22;7907;51.368;6.730;2023-03-02T00:12:35;3.40;90.90
15615;DHT22;7907;51.368;6.730;2023-03-02T00:15:04;3.40;90.90
15615;DHT22;7907;51.368;6.730;2023-03-02T00:17:32;3.40;91.20
15615;DHT22;7907;51.368;6.730;2023-03-02T00:20:00;3.40;91.20
15615;DHT22;7907;51.368;6.730;2023-03-02T00:22:32;3.40;91.30
15615;DHT22;7907;51.368;6.730;2023-03-02T00:24:59;3.40;91.30
15615;DHT22;7907;51.368;6.730;2023-03-02T00:27:27;3.30;91.40
15615;DHT22;7907;51.368;6.730;2023-03-02T00:29:56;3.30;91.40
15615;DHT22;7907;51.368;6.730;2023-03-02T00:32:25;3.30;91.50
15615;DHT22;7907;51.368;6.730;2023-03-02T00:34:52;3.30;91.50
15615;DHT22;7907;51.368;6.730;2023-03-02T00:37:20;3.30;91.70
15615;DHT22;7907;51.368;6.730;2023-03-02T00:39:47;3.20;91.90
15615;DHT22;7907;51.368;6.730;2023-03-02T00:42:17;3.20;91.90
15615;DHT22;7907;51.368;6.730;2023-03-02T00:44:44;3.20;92.00
15615;DHT22;7907;51.368;6.730;2023-03-02T00:47:15;3.30;92.10
15615;DHT22;7907;51.368;6.730;2023-03-02T00:49:43;3.20;92.20
15615;DHT22;7907;51.368;6.730;2023-03-02T00:52:14;3.10;92.30
15615;DHT22;7907;51.368;6.730;2023-03-02T00:54:41;3.20;92.50
15615;DHT22;7907;51.368;6.730;2023-03-02T00:57:08;3.10;92.70
15615;DHT22;7907;51.368;6.730;2023-03-02T00:59:37;3.10;92.80
15615;DHT22;7907;51.368;6.730;2023-03-02T01:02:04;3.00;93.00
15615;DHT22;7907;51.368;6.730;2023-03-02T01:04:34;3.10;93.10
15615;DHT22;7907;51.368;6.730;2023-03-02T01:07:05;3.10;93.00
15615;DHT22;7907;51.368;6.730;2023-03-02T01:09:33;3.00;93.00
15615;DHT22;7907;51.368;6.730;2023-03-02T01:12:02;3.10;93.30
15615;DHT22;7907;51.368;6.730;2023-03-02T01:14:30;3.00;93.90
15615;DHT22;7907;51.368;6.730;2023-03-02T01:16:57;3.00;94.00
15615;DHT22;7907;51.368;6.730;2023-03-02T01:19:26;3.00;93.80
15615;DHT22;7907;51.368;6.730;2023-03-02T01:21:53;3.00;93.80
15615;DHT22;7907;51.368;6.730;2023-03-02T01:24:22;3.00;93.80
15615;DHT22;7907;51.368;6.730;2023-03-02T01:26:49;3.00;94.10
15615;DHT22;7907;51.368;6.730;2023-03-02T01:29:16;2.90;94.10
15615;DHT22;7907;51.368;6.730;2023-03-02T01:31:43;2.90;94.10
15615;DHT22;7907;51.368;6.730;2023-03-02T01:34:11;2.90;94.10
15615;DHT22;7907;51.368;6.730;2023-03-02T01:36:38;2.90;94.40
15615;DHT22;7907;51.368;6.730;2023-03-02T01:39:05;2.90;94.30
15615;DHT22;7907;51.368;6.730;2023-03-02T01:44:59;2.80;94.30
15615;DHT22;7907;51.368;6.730;2023-03-02T01:47:31;2.80;94.50
15615;DHT22;7907;51.368;6.730;2023-03-02T01:50:01;2.80;94.60
15615;DHT22;7907;51.368;6.730;2023-03-02T01:52:32;2.80;94.60
15615;DHT22;7907;51.368;6.730;2023-03-02T01:55:02;2.80;94.70
15615;DHT22;7907;51.368;6.730;2023-03-02T01:57:33;2.80;94.70
15615;DHT22;7907;51.368;6.730;2023-03-02T02:00:13;2.80;94.90
15615;DHT22;7907;51.368;6.730;2023-03-02T02:02:41;2.70;94.90
15615;DHT22;7907;51.368;6.730;2023-03-02T02:05:09;2.70;95.10
15615;DHT22;7907;51.368;6.730;2023-03-02T02:07:38;2.70;95.50
15615;DHT22;7907;51.368;6.730;2023-03-02T02:10:06;2.70;95.70
15615;DHT22;7907;51.368;6.730;2023-03-02T02:12:34;2.70;95.70
15615;DHT22;7907;51.368;6.730;2023-03-02T02:15:04;2.60;95.90
15615;DHT22;7907;51.368;6.730;2023-03-02T02:17:34;2.60;96.10
15615;DHT22;7907;51.368;6.730;2023-03-02T02:20:05;2.60;96.30
15615;DHT22;7907;51.368;6.730;2023-03-02T02:22:45;2.60;96.40
15615;DHT22;7907;51.368;6.730;2023-03-02T02:25:21;2.60;96.50
15615;DHT22;7907;51.368;6.730;2023-03-02T02:27:52;2.50;96.60
15615;DHT22;7907;51.368;6.730;2023-03-02T02:30:20;2.50;96.70
15615;DHT22;7907;51.368;6.730;2023-03-02T02:32:51;2.50;97.00
15615;DHT22;7907;51.368;6.730;2023-03-02T02:35:22;2.50;96.90
15615;DHT22;7907;51.368;6.730;2023-03-02T02:37:54;2.50;97.00
15615;DHT22;7907;51.368;6.730;2023-03-02T02:40:38;2.50;97.00
15615;DHT22;7907;51.368;6.730;2023-03-02T02:43:09;2.50;97.00
15615;DHT22;7907;51.368;6.730;2023-03-02T02:45:38;2.50;97.00
15615;DHT22;7907;51.368;6.730;2023-03-02T02:48:08;2.50;97.30
15615;DHT22;7907;51.368;6.730;2023-03-02T02:50:37;2.40;97.20
15615;DHT22;7907;51.368;6.730;2023-03-02T02:53:08;2.50;97.40
15615;DHT22;7907;51.368;6.730;2023-03-02T02:55:37;2.40;97.40
15615;DHT22;7907;51.368;6.730;2023-03-02T02:58:28;2.40;97.50
15615;DHT22;7907;51.368;6.730;2023-03-02T03:00:56;2.40;97.90
15615;DHT22;7907;51.368;6.730;2023-03-02T03:03:28;2.40;97.80
15615;DHT22;7907;51.368;6.730;2023-03-02T03:05:57;2.40;97.70
15615;DHT22;7907;51.368;6.730;2023-03-02T03:08:51;2.40;97.80
15615;DHT22;7907;51.368;6.730;2023-03-02T03:11:22;2.40;97.70
15615;DHT22;7907;51.368;6.730;2023-03-02T03:13:56;2.40;97.80
15615;DHT22;7907;51.368;6.730;2023-03-02T03:16:26;2.40;98.00
15615;DHT22;7907;51.368;6.730;2023-03-02T03:18:55;2.40;98.10
15615;DHT22;7907;51.368;6.730;2023-03-02T03:21:25;2.40;97.80
15615;DHT22;7907;51.368;6.730;2023-03-02T03:23:52;2.40;97.90
15615;DHT22;7907;51.368;6.730;2023-03-02T03:26:20;2.30;97.80
15615;DHT22;7907;51.368;6.730;2023-03-02T03:28:47;2.40;97.70
15615;DHT22;7907;51.368;6.730;2023-03-02T03:31:16;2.40;97.90
15615;DHT22;7907;51.368;6.730;2023-03-02T03:33:43;2.30;97.90
15615;DHT22;7907;51.368;6.730;2023-03-02T03:36:11;2.40;97.70
15615;DHT22;7907;51.368;6.730;2023-03-02T03:38:38;2.30;97.50
15615;DHT22;7907;51.368;6.730;2023-03-02T03:41:10;2.30;97.70
15615;DHT22;7907;51.368;6.730;2023-03-02T03:43:39;2.30;97.50
15615;DHT22;7907;51.368;6.730;2023-03-02T03:46:06;2.30;97.70
15615;DHT22;7907;51.368;6.730;2023-03-02T03:48:35;2.30;97.30
15615;DHT22;7907;51.368;6.730;2023-03-02T03:51:02;2.40;97.40
15615;DHT22;7907;51.368;6.730;2023-03-02T03:53:30;2.30;97.30
15615;DHT22;7907;51.368;6.730;2023-03-02T03:55:57;2.30;97.20
15615;DHT22;7907;51.368;6.730;2023-03-02T03:58:24;2.30;97.30
15615;DHT22;7907;51.368;6.730;2023-03-02T04:00:54;2.30;97.30
15615;DHT22;7907;51.368;6.730;2023-03-02T04:03:22;2.30;97.20
15615;DHT22;7907;51.368;6.730;2023-03-02T04:05:51;2.30;97.40
15615;DHT22;7907;51.368;6.730;2023-03-02T04:08:19;2.30;97.40
15615;DHT22;7907;51.368;6.730;2023-03-02T04:10:46;2.30;97.40
15615;DHT22;7907;51.368;6.730;2023-03-02T04:13:13;2.30;97.70
15615;DHT22;7907;51.368;6.730;2023-03-02T04:15:40;2.30;97.70
15615;DHT22;7907;51.368;6.730;2023-03-02T04:18:08;2.30;97.80
15615;DHT22;7907;51.368;6.730;2023-03-02T04:20:35;2.30;97.80
15615;DHT22;7907;51.368;6.730;2023-03-02T04:23:04;2.20;98.20
15615;DHT22;7907;51.368;6.730;2023-03-02T04:25:34;2.20;98.20
15615;DHT22;7907;51.368;6.730;2023-03-02T04:28:02;2.20;98.10
15615;DHT22;7907;51.368;6.730;2023-03-02T04:30:29;2.20;98.10
15615;DHT22;7907;51.368;6.730;2023-03-02T04:32:57;2.20;98.20
15615;DHT22;7907;51.368;6.730;2023-03-02T04:35:25;2.20;98.40
15615;DHT22;7907;51.368;6.730;2023-03-02T04:37:52;2.20;98.40
15615;DHT22;7907;51.368;6.730;2023-03-02T04:40:20;2.10;98.20
15615;DHT22;7907;51.368;6.730;2023-03-02T04:42:48;2.10;98.30
15615;DHT22;7907;51.368;6.730;2023-03-02T04:45:15;2.20;98.20
15615;DHT22;7907;51.368;6.730;2023-03-02T04:47:42;2.10;98.10
15615;DHT22;7907;51.368;6.730;2023-03-02T04:50:13;2.10;98.20
15615;DHT22;7907;51.368;6.730;2023-03-02T04:52:41;2.10;98.10
15615;DHT22;7907;51.368;6.730;2023-03-02T04:55:10;2.00;97.90
15615;DHT22;7907;51.368;6.730;2023-03-02T04:57:42;2.10;97.90
15615;DHT22;7907;51.368;6.730;2023-03-02T05:00:11;2.20;98.00
15615;DHT22;7907;51.368;6.730;2023-03-02T05:02:38;2.10;97.80
15615;DHT22;7907;51.368;6.730;2023-03-02T05:05:06;2.20;97.90
15615;DHT22;7907;51.368;6.730;2023-03-02T05:07:34;2.10;97.60
15615;DHT22;7907;51.368;6.730;2023-03-02T05:10:01;2.10;97.60
15615;DHT22;7907;51.368;6.730;2023-03-02T05:12:28;2.10;97.60
15615;DHT22;7907;51.368;6.730;2023-03-02T05:14:57;2.10;97.60
15615;DHT22;7907;51.368;6.730;2023-03-02T05:17:24;2.10;97.60
15615;DHT22;7907;51.368;6.730;2023-03-02T05:19:54;2.10;97.40
15615;DHT22;7907;51.368;6.730;2023-03-02T05:22:23;2.10;97.60
15615;DHT22;7907;51.368;6.730;2023-03-02T05:24:50;2.10;97.40
15615;DHT22;7907;51.368;6.730;2023-03-02T05:27:17;2.10;97.40
15615;DHT22;7907;51.368;6.730;2023-03-02T05:29:44;2.10;97.40
15615;DHT22;7907;51.368;6.730;2023-03-02T05:32:13;2.20;97.30
15615;DHT22;7907;51.368;6.730;2023-03-02T05:34:40;2.20;97.30
15615;DHT22;7907;51.368;6.730;2023-03-02T05:37:08;2.20;97.00
15615;DHT22;7907;51.368;6.730;2023-03-02T05:39:35;2.20;97.20
15615;DHT22;7907;51.368;6.730;2023-03-02T05:42:04;2.20;97.40
15615;DHT22;7907;51.368;6.730;2023-03-02T05:44:31;2.20;97.30
15615;DHT22;7907;51.368;6.730;2023-03-02T05:46:58;2.20;97.10
15615;DHT22;7907;51.368;6.730;2023-03-02T05:49:27;2.20;97.20
15615;DHT22;7907;51.368;6.730;2023-03-02T05:51:54;2.20;97.20
15615;DHT22;7907;51.368;6.730;2023-03-02T05:54:22;2.20;97.10
15615;DHT22;7907;51.368;6.730;2023-03-02T05:56:49;2.20;97.30
15615;DHT22;7907;51.368;6.730;2023-03-02T05:59:16;2.20;97.40
15615;DHT22;7907;51.368;6.730;2023-03-02T06:01:43;2.10;97.50
15615;DHT22;7907;51.368;6.730;2023-03-02T06:04:12;2.10;97.60
15615;DHT22;7907;51.368;6.730;2023-03-02T06:06:41;2.10;97.70
15615;DHT22;7907;51.368;6.730;2023-03-02T06:09:11;2.10;97.70
15615;DHT22;7907;51.368;6.730;2023-03-02T06:11:40;2.10;98.00
15615;DHT22;7907;51.368;6.730;2023-03-02T06:14:08;2.10;98.00
15615;DHT22;7907;51.368;6.730;2023-03-02T06:16:35;2.00;98.10
15615;DHT22;7907;51.368;6.730;2023-03-02T06:19:05;2.00;98.30
15615;DHT22;7907;51.368;6.730;2023-03-02T06:21:33;2.00;98.40
15615;DHT22;7907;51.368;6.730;2023-03-02T06:24:06;2.00;98.60
15615;DHT22;7907;51.368;6.730;2023-03-02T06:26:34;2.00;98.60
15615;DHT22;7907;51.368;6.730;2023-03-02T06:29:04;2.00;98.70
15615;DHT22;7907;51.368;6.730;2023-03-02T06:31:32;2.00;98.70
15615;DHT22;7907;51.368;6.730;2023-03-02T06:34:02;2.00;98.80
15615;DHT22;7907;51.368;6.730;2023-03-02T06:36:30;1.90;98.80
15615;DHT22;7907;51.368;6.730;2023-03-02T06:38:57;1.90;99.00
15615;DHT22;7907;51.368;6.730;2023-03-02T06:41:26;1.90;98.90
15615;DHT22;7907;51.368;6.730;2023-03-02T06:43:54;1.90;99.10
15615;DHT22;7907;51.368;6.730;2023-03-02T06:46:23;2.00;99.00
15615;DHT22;7907;51.368;6.730;2023-03-02T06:48:51;1.90;99.10
15615;DHT22;7907;51.368;6.730;2023-03-02T06:51:18;2.00;99.00
15615;DHT22;7907;51.368;6.730;2023-03-02T06:53:46;2.00;99.00
15615;DHT22;7907;51.368;6.730;2023-03-02T06:56:14;2.00;99.00
15615;DHT22;7907;51.368;6.730;2023-03-02T06:58:44;2.00;99.00
15615;DHT22;7907;51.368;6.730;2023-03-02T07:01:12;2.00;99.10
15615;DHT22;7907;51.368;6.730;2023-03-02T07:03:39;2.00;99.10
15615;DHT22;7907;51.368;6.730;2023-03-02T07:06:09;2.00;98.90
15615;DHT22;7907;51.368;6.730;2023-03-02T07:08:37;2.10;98.90
15615;DHT22;7907;51.368;6.730;2023-03-02T07:11:05;2.10;99.10
15615;DHT22;7907;51.368;6.730;2023-03-02T07:13:33;2.20;99.20
15615;DHT22;7907;51.368;6.730;2023-03-02T07:16:05;2.20;99.20
15615;DHT22;7907;51.368;6.730;2023-03-02T07:18:35;2.20;99.00
15615;DHT22;7907;51.368;6.730;2023-03-02T07:21:03;2.30;98.90
15615;DHT22;7907;51.368;6.730;2023-03-02T07:23:31;2.30;98.80
15615;DHT22;7907;51.368;6.730;2023-03-02T07:26:01;2.30;98.80
15615;DHT22;7907;51.368;6.730;2023-03-02T07:28:33;2.30;99.00
15615;DHT22;7907;51.368;6.730;2023-03-02T07:31:02;2.40;99.20
15615;DHT22;7907;51.368;6.730;2023-03-02T07:33:29;2.40;98.90
15615;DHT22;7907;51.368;6.730;2023-03-02T07:35:59;2.40;98.80
15615;DHT22;7907;51.368;6.730;2023-03-02T07:38:27;2.50;98.70
15615;DHT22;7907;51.368;6.730;2023-03-02T07:40:54;2.60;98.70
15615;DHT22;7907;51.368;6.730;2023-03-02T07:43:21;2.60;98.50
15615;DHT22;7907;51.368;6.730;2023-03-02T07:45:53;2.70;98.30
15615;DHT22;7907;51.368;6.730;2023-03-02T07:48:25;2.70;98.20
15615;DHT22;7907;51.368;6.730;2023-03-02T07:50:58;2.80;97.90
15615;DHT22;7907;51.368;6.730;2023-03-02T07:53:25;2.90;97.90
15615;DHT22;7907;51.368;6.730;2023-03-02T07:55:55;2.90;97.70
15615;DHT22;7907;51.368;6.730;2023-03-02T07:58:27;2.90;97.30
15615;DHT22;7907;51.368;6.730;2023-03-02T08:00:54;3.00;97.20
15615;DHT22;7907;51.368;6.730;2023-03-02T08:03:23;3.10;97.10
15615;DHT22;7907;51.368;6.730;2023-03-02T08:05:51;3.20;96.60
15615;DHT22;7907;51.368;6.730;2023-03-02T08:08:18;3.20;96.30
15615;DHT22;7907;51.368;6.730;2023-03-02T08:10:46;3.30;96.20
15615;DHT22;7907;51.368;6.730;2023-03-02T08:13:14;3.40;96.20
15615;DHT22;7907;51.368;6.730;2023-03-02T08:15:41;3.40;96.40
15615;DHT22;7907;51.368;6.730;2023-03-02T08:18:10;3.50;96.40
15615;DHT22;7907;51.368;6.730;2023-03-02T08:20:49;3.60;95.80
15615;DHT22;7907;51.368;6.730;2023-03-02T08:23:21;3.60;95.60
15615;DHT22;7907;51.368;6.730;2023-03-02T08:25:51;3.70;95.70
15615;DHT22;7907;51.368;6.730;2023-03-02T08:28:21;3.80;95.30
15615;DHT22;7907;51.368;6.730;2023-03-02T08:30:54;3.90;95.30
15615;DHT22;7907;51.368;6.730;2023-03-02T08:33:24;3.90;94.90
15615;DHT22;7907;51.368;6.730;2023-03-02T08:35:58;4.00;94.90
15615;DHT22;7907;51.368;6.730;2023-03-02T08:38:27;4.10;94.40
15615;DHT22;7907;51.368;6.730;2023-03-02T08:40:56;4.20;93.90
15615;DHT22;7907;51.368;6.730;2023-03-02T08:43:24;4.20;92.80
15615;DHT22;7907;51.368;6.730;2023-03-02T08:45:53;4.20;93.00
15615;DHT22;7907;51.368;6.730;2023-03-02T08:48:23;4.40;92.80
15615;DHT22;7907;51.368;6.730;2023-03-02T08:51:00;4.40;92.50
15615;DHT22;7907;51.368;6.730;2023-03-02T08:53:31;4.50;92.30
15615;DHT22;7907;51.368;6.730;2023-03-02T08:56:01;4.50;92.70
15615;DHT22;7907;51.368;6.730;2023-03-02T08:58:32;4.60;92.00
15615;DHT22;7907;51.368;6.730;2023-03-02T09:01:00;4.70;92.00
15615;DHT22;7907;51.368;6.730;2023-03-02T09:03:27;4.70;91.50
15615;DHT22;7907;51.368;6.730;2023-03-02T09:05:55;4.90;91.20
15615;DHT22;7907;51.368;6.730;2023-03-02T09:08:25;4.90;90.90
15615;DHT22;7907;51.368;6.730;2023-03-02T09:10:52;5.00;90.20
15615;DHT22;7907;51.368;6.730;2023-03-02T09:13:20;5.00;89.80
15615;DHT22;7907;51.368;6.730;2023-03-02T09:15:47;5.10;89.90
15615;DHT22;7907;51.368;6.730;2023-03-02T09:18:14;5.20;90.20
15615;DHT22;7907;51.368;6.730;2023-03-02T09:20:41;5.20;89.50
15615;DHT22;7907;51.368;6.730;2023-03-02T09:23:09;5.30;88.40
15615;DHT22;7907;51.368;6.730;2023-03-02T09:25:39;5.50;89.00
15615;DHT22;7907;51.368;6.730;2023-03-02T09:28:07;5.50;87.60
15615;DHT22;7907;51.368;6.730;2023-03-02T09:30:37;5.60;86.40
15615;DHT22;7907;51.368;6.730;2023-03-02T09:33:05;5.70;86.40
15615;DHT22;7907;51.368;6.730;2023-03-02T09:35:33;5.80;86.10
15615;DHT22;7907;51.368;6.730;2023-03-02T09:38:01;5.90;85.50
15615;DHT22;7907;51.368;6.730;2023-03-02T09:40:32;6.00;85.30
15615;DHT22;7907;51.368;6.730;2023-03-02T09:43:16;6.00;84.80
15615;DHT22;7907;51.368;6.730;2023-03-02T09:46:00;6.10;81.30
15615;DHT22;7907;51.368;6.730;2023-03-02T09:48:38;6.20;80.80
15615;DHT22;7907;51.368;6.730;2023-03-02T09:51:23;6.30;80.70
15615;DHT22;7907;51.368;6.730;2023-03-02T09:53:58;6.30;79.20
15615;DHT22;7907;51.368;6.730;2023-03-02T09:56:26;6.40;79.20
15615;DHT22;7907;51.368;6.730;2023-03-02T09:59:00;6.50;78.10
15615;DHT22;7907;51.368;6.730;2023-03-02T10:01:38;6.60;78.10
15615;DHT22;7907;51.368;6.730;2023-03-02T10:04:14;6.70;77.40
15615;DHT22;7907;51.368;6.730;2023-03-02T10:06:46;6.70;77.20
15615;DHT22;7907;51.368;6.730;2023-03-02T10:09:15;6.80;76.40
15615;DHT22;7907;51.368;6.730;2023-03-02T10:11:53;6.90;75.30
15615;DHT22;7907;51.368;6.730;2023-03-02T10:14:33;7.00;75.00
15615;DHT22;7907;51.368;6.730;2023-03-02T10:17:19;7.10;74.00
15615;DHT22;7907;51.368;6.730;2023-03-02T10:22:45;7.20;72.30
15615;DHT22;7907;51.368;6.730;2023-03-02T10:25:23;7.20;70.90
15615;DHT22;7907;51.368;6.730;2023-03-02T10:28:01;7.30;70.90
15615;DHT22;7907;51.368;6.730;2023-03-02T10:30:36;7.40;70.90
15615;DHT22;7907;51.368;6.730;2023-03-02T10:33:12;7.50;70.00
15615;DHT22;7907;51.368;6.730;2023-03-02T10:35:45;7.50;69.50
15615;DHT22;7907;51.368;6.730;2023-03-02T10:38:17;7.50;68.00
15615;DHT22;7907;51.368;6.730;2023-03-02T10:40:48;7.60;68.20
15615;DHT22;7907;51.368;6.730;2023-03-02T10:43:21;7.70;69.00
15615;DHT22;7907;51.368;6.730;2023-03-02T10:46:02;7.80;69.30
15615;DHT22;7907;51.368;6.730;2023-03-02T10:48:43;8.00;68.90
15615;DHT22;7907;51.368;6.730;2023-03-02T10:51:25;8.00;67.70
15615;DHT22;7907;51.368;6.730;2023-03-02T10:54:04;8.10;67.40
15615;DHT22;7907;51.368;6.730;2023-03-02T10:56:32;8.30;65.80
15615;DHT22;7907;51.368;6.730;2023-03-02T10:59:11;8.30;66.00
15615;DHT22;7907;51.368;6.730;2023-03-02T11:01:42;8.40;65.80
15615;DHT22;7907;51.368;6.730;2023-03-02T11:04:13;8.50;64.40
15615;DHT22;7907;51.368;6.730;2023-03-02T11:06:45;8.60;63.60
15615;DHT22;7907;51.368;6.730;2023-03-02T11:09:16;8.70;62.70
15615;DHT22;7907;51.368;6.730;2023-03-02T11:11:57;8.70;62.40
15615;DHT22;7907;51.368;6.730;2023-03-02T11:14:27;8.80;61.90
15615;DHT22;7907;51.368;6.730;2023-03-02T11:16:56;8.80;61.10
15615;DHT22;7907;51.368;6.730;2023-03-02T11:19:32;8.80;61.70
15615;DHT22;7907;51.368;6.730;2023-03-02T11:22:11;8.90;61.90
15615;DHT22;7907;51.368;6.730;2023-03-02T11:24:48;9.10;61.60
15615;DHT22;7907;51.368;6.730;2023-03-02T11:27:24;9.10;60.70
15615;DHT22;7907;51.368;6.730;2023-03-02T11:29:57;9.20;61.80
15615;DHT22;7907;51.368;6.730;2023-03-02T11:32:32;9.30;60.10
15615;DHT22;7907;51.368;6.730;2023-03-02T11:35:05;9.40;59.30
15615;DHT22;7907;51.368;6.730;2023-03-02T11:37:44;9.50;58.40
15615;DHT22;7907;51.368;6.730;2023-03-02T11:40:18;9.60;58.30
15615;DHT22;7907;51.368;6.730;2023-03-02T11:42:49;9.80;58.10
15615;DHT22;7907;51.368;6.730;2023-03-02T11:45:21;9.80;58.40
15615;DHT22;7907;51.368;6.730;2023-03-02T11:47:54;10.00;57.00
15615;DHT22;7907;51.368;6.730;2023-03-02T11:50:31;10.10;56.50
15615;DHT22;7907;51.368;6.730;2023-03-02T11:53:03;10.30;55.70
15615;DHT22;7907;51.368;6.730;2023-03-02T11:55:39;10.40;55.60
15615;DHT22;7907;51.368;6.730;2023-03-02T11:58:16;10.50;54.10
15615;DHT22;7907;51.368;6.730;2023-03-02T12:00:49;10.60;53.30
15615;DHT22;7907;51.368;6.730;2023-03-02T12:03:37;10.70;52.90
15615;DHT22;7907;51.368;6.730;2023-03-02T12:06:07;10.90;52.30
15615;DHT22;7907;51.368;6.730;2023-03-02T12:08:37;11.00;52.20
15615;DHT22;7907;51.368;6.730;2023-03-02T12:11:34;11.20;51.70
15615;DHT22;7907;51.368;6.730;2023-03-02T12:14:02;11.40;51.20
15615;DHT22;7907;51.368;6.730;2023-03-02T12:16:36;11.60;52.10
15615;DHT22;7907;51.368;6.730;2023-03-02T12:19:12;11.80;51.90
15615;DHT22;7907;51.368;6.730;2023-03-02T12:21:40;12.10;51.50
15615;DHT22;7907;51.368;6.730;2023-03-02T12:24:34;12.30;51.00
15615;DHT22;7907;51.368;6.730;2023-03-02T12:27:05;12.50;50.30
15615;DHT22;7907;51.368;6.730;2023-03-02T12:29:41;12.80;49.30
15615;DHT22;7907;51.368;6.730;2023-03-02T12:32:11;13.00;49.20
15615;DHT22;7907;51.368;6.730;2023-03-02T12:34:42;13.30;48.00
15615;DHT22;7907;51.368;6.730;2023-03-02T12:37:18;13.40;47.10
15615;DHT22;7907;51.368;6.730;2023-03-02T12:40:30;13.60;46.90
15615;DHT22;7907;51.368;6.730;2023-03-02T12:49:20;14.30;45.70
15615;DHT22;7907;51.368;6.730;2023-03-02T12:51:56;14.60;45.50
15615;DHT22;7907;51.368;6.730;2023-03-02T12:54:28;14.90;45.70
15615;DHT22;7907;51.368;6.730;2023-03-02T12:57:04;15.00;43.90
15615;DHT22;7907;51.368;6.730;2023-03-02T12:59:38;15.20;43.50
15615;DHT22;7907;51.368;6.730;2023-03-02T13:02:24;15.40;43.00
15615;DHT22;7907;51.368;6.730;2023-03-02T13:04:53;15.60;43.20
15615;DHT22;7907;51.368;6.730;2023-03-02T13:07:25;15.80;41.50
15615;DHT22;7907;51.368;6.730;2023-03-02T13:09:57;16.00;41.30
15615;DHT22;7907;51.368;6.730;2023-03-02T13:12:28;16.10;41.00
15615;DHT22;7907;51.368;6.730;2023-03-02T13:15:20;16.30;40.10
15615;DHT22;7907;51.368;6.730;2023-03-02T13:17:58;16.20;39.50
15615;DHT22;7907;51.368;6.730;2023-03-02T13:20:34;16.40;39.60
15615;DHT22;7907;51.368;6.730;2023-03-02T13:23:02;16.50;39.80
15615;DHT22;7907;51.368;6.730;2023-03-02T13:25:30;16.70;39.60
15615;DHT22;7907;51.368;6.730;2023-03-02T13:28:00;16.90;39.60
15615;DHT22;7907;51.368;6.730;2023-03-02T13:30:34;17.10;38.40
15615;DHT22;7907;51.368;6.730;2023-03-02T13:33:18;17.40;38.60
15615;DHT22;7907;51.368;6.730;2023-03-02T13:35:49;17.40;37.50
15615;DHT22;7907;51.368;6.730;2023-03-02T13:38:18;17.60;37.30
15615;DHT22;7907;51.368;6.730;2023-03-02T13:40:47;17.80;36.70
15615;DHT22;7907;51.368;6.730;2023-03-02T13:43:21;17.90;35.70
15615;DHT22;7907;51.368;6.730;2023-03-02T13:45:56;18.10;35.60
15615;DHT22;7907;51.368;6.730;2023-03-02T13:48:28;18.40;35.00
15615;DHT22;7907;51.368;6.730;2023-03-02T13:51:00;18.70;34.10
15615;DHT22;7907;51.368;6.730;2023-03-02T13:53:31;18.90;33.80
15615;DHT22;7907;51.368;6.730;2023-03-02T13:56:06;19.20;34.70
15615;DHT22;7907;51.368;6.730;2023-03-02T13:58:35;19.30;32.40
15615;DHT22;7907;51.368;6.730;2023-03-02T14:01:07;19.50;32.50
15615;DHT22;7907;51.368;6.730;2023-03-02T14:03:35;19.80;32.80
15615;DHT22;7907;51.368;6.730;2023-03-02T14:06:06;20.00;31.90
15615;DHT22;7907;51.368;6.730;2023-03-02T14:08:36;20.20;31.70
15615;DHT22;7907;51.368;6.730;2023-03-02T14:11:05;20.30;30.90
15615;DHT22;7907;51.368;6.730;2023-03-02T14:13:41;20.50;31.60
15615;DHT22;7907;51.368;6.730;2023-03-02T14:16:11;20.70;32.20
15615;DHT22;7907;51.368;6.730;2023-03-02T14:18:42;20.90;31.60
15615;DHT22;7907;51.368;6.730;2023-03-02T14:21:11;21.10;31.80
15615;DHT22;7907;51.368;6.730;2023-03-02T14:23:42;21.20;31.50
15615;DHT22;7907;51.368;6.730;2023-03-02T14:26:22;21.40;31.40
15615;DHT22;7907;51.368;6.730;2023-03-02T14:28:58;21.50;32.10
15615;DHT22;7907;51.368;6.730;2023-03-02T14:31:30;21.60;31.80
15615;DHT22;7907;51.368;6.730;2023-03-02T14:33:58;21.60;31.70
15615;DHT22;7907;51.368;6.730;2023-03-02T14:36:31;21.80;31.60
15615;DHT22;7907;51.368;6.730;2023-03-02T14:39:04;21.90;30.90
15615;DHT22;7907;51.368;6.730;2023-03-02T14:41:39;21.90;30.90
15615;DHT22;7907;51.368;6.730;2023-03-02T14:44:13;22.20;31.10
15615;DHT22;7907;51.368;6.730;2023-03-02T14:46:42;22.40;30.30
15615;DHT22;7907;51.368;6.730;2023-03-02T14:49:11;22.30;30.40
15615;DHT22;7907;51.368;6.730;2023-03-02T14:51:39;22.40;30.90
15615;DHT22;7907;51.368;6.730;2023-03-02T14:54:16;22.30;31.10
15615;DHT22;7907;51.368;6.730;2023-03-02T14:56:45;22.30;31.10
15615;DHT22;7907;51.368;6.730;2023-03-02T14:59:13;22.20;31.00
15615;DHT22;7907;51.368;6.730;2023-03-02T15:01:43;22.30;30.90
15615;DHT22;7907;51.368;6.730;2023-03-02T15:04:11;22.20;30.80
15615;DHT22;7907;51.368;6.730;2023-03-02T15:06:42;22.00;31.20
15615;DHT22;7907;51.368;6.730;2023-03-02T15:09:10;22.10;31.50
15615;DHT22;7907;51.368;6.730;2023-03-02T15:11:37;22.30;31.70
15615;DHT22;7907;51.368;6.730;2023-03-02T15:14:05;22.40;31.70
15615;DHT22;7907;51.368;6.730;2023-03-02T15:16:32;22.50;31.30
15615;DHT22;7907;51.368;6.730;2023-03-02T15:19:00;22.60;31.10
15615;DHT22;7907;51.368;6.730;2023-03-02T15:21:29;22.40;30.80
15615;DHT22;7907;51.368;6.730;2023-03-02T15:23:56;22.50;31.10
15615;DHT22;7907;51.368;6.730;2023-03-02T15:26:23;22.50;31.10
15615;DHT22;7907;51.368;6.730;2023-03-02T15:28:50;22.40;31.40
15615;DHT22;7907;51.368;6.730;2023-03-02T15:31:20;22.30;31.60
15615;DHT22;7907;51.368;6.730;2023-03-02T15:33:47;22.30;31.80
15615;DHT22;7907;51.368;6.730;2023-03-02T15:36:16;22.10;31.60
15615;DHT22;7907;51.368;6.730;2023-03-02T15:38:48;22.20;32.00
15615;DHT22;7907;51.368;6.730;2023-03-02T15:41:18;22.20;32.10
15615;DHT22;7907;51.368;6.730;2023-03-02T15:43:48;22.20;31.60
15615;DHT22;7907;51.368;6.730;2023-03-02T15:46:16;22.10;31.50
15615;DHT22;7907;51.368;6.730;2023-03-02T15:48:46;22.20;31.70
15615;DHT22;7907;51.368;6.730;2023-03-02T15:51:13;22.10;31.90
15615;DHT22;7907;51.368;6.730;2023-03-02T15:53:40;22.20;31.90
15615;DHT22;7907;51.368;6.730;2023-03-02T15:56:11;22.10;31.70
15615;DHT22;7907;51.368;6.730;2023-03-02T15:58:39;22.00;31.70
15615;DHT22;7907;51.368;6.730;2023-03-02T16:01:09;21.60;31.80
15615;DHT22;7907;51.368;6.730;2023-03-02T16:03:36;21.20;32.40
15615;DHT22;7907;51.368;6.730;2023-03-02T16:06:05;20.50;32.80
15615;DHT22;7907;51.368;6.730;2023-03-02T16:08:33;19.80;33.30
15615;DHT22;7907;51.368;6.730;2023-03-02T16:11:02;19.20;34.10
15615;DHT22;7907;51.368;6.730;2023-03-02T16:13:31;18.70;34.80
15615;DHT22;7907;51.368;6.730;2023-03-02T16:15:59;18.00;35.50
15615;DHT22;7907;51.368;6.730;2023-03-02T16:18:27;17.30;36.60
15615;DHT22;7907;51.368;6.730;2023-03-02T16:20:54;16.80;37.60
15615;DHT22;7907;51.368;6.730;2023-03-02T16:23:24;16.30;38.30
15615;DHT22;7907;51.368;6.730;2023-03-02T16:25:53;15.90;39.00
15615;DHT22;7907;51.368;6.730;2023-03-02T16:28:20;15.60;39.50
15615;DHT22;7907;51.368;6.730;2023-03-02T16:30:49;15.20;40.30